sensor_id;sensor_type;location;lat;lon;timestamp;P1;durP1;ratioP1;P2;durP2;ratioP2
23768;SDS011;12064;50.890;5.424;2024-02-26T00:07:11;1.20;;;0.40;;
23768;SDS011;12064;50.890;5.424;2024-02-26T00:16:02;1.60;;;0.40;;
23768;SDS011;12064;50.890;5.424;2024-02-26T00:24:53;1.17;;;0.57;;
23768;SDS011;12064;50.890;5.424;2024-02-26T00:33:44;0.90;;;0.50;;
23768;SDS011;12064;50.890;5.424;2024-02-26T00:42:34;0.60;;;0.40;;
23768;SDS011;12064;50.890;5.424;2024-02-26T00:51:25;0.87;;;0.50;;
23768;SDS011;12064;50.890;5.424;2024-02-26T01:00:16;2.63;;;0.70;;
23768;SDS011;12064;50.890;5.424;2024-02-26T01:09:07;1.25;;;0.52;;
23768;SDS011;12064;50.890;5.424;2024-02-26T01:17:58;0.80;;;0.60;;
23768;SDS011;12064;50.890;5.424;2024-02-26T01:26:49;2.85;;;0.60;;
23768;SDS011;12064;50.890;5.424;2024-02-26T01:35:39;2.43;;;0.60;;
23768;SDS011;12064;50.890;5.424;2024-02-26T01:44:30;1.17;;;0.40;;
23768;SDS011;12064;50.890;5.424;2024-02-26T01:53:20;1.30;;;0.53;;
23768;SDS011;12064;50.890;5.424;2024-02-26T02:02:12;1.10;;;0.50;;
23768;SDS011;12064;50.890;5.424;2024-02-26T02:11:04;0.60;;;0.60;;
23768;SDS011;12064;50.890;5.424;2024-02-26T02:19:56;1.65;;;0.68;;
23768;SDS011;12064;50.890;5.424;2024-02-26T02:28:47;0.82;;;0.50;;
23768;SDS011;12064;50.890;5.424;2024-02-26T02:37:38;0.98;;;0.60;;
23768;SDS011;12064;50.890;5.424;2024-02-26T02:46:29;0.43;;;0.40;;
23768;SDS011;12064;50.890;5.424;2024-02-26T02:55:21;0.80;;;0.45;;
23768;SDS011;12064;50.890;5.424;2024-02-26T03:04:12;0.57;;;0.55;;
23768;SDS011;12064;50.890;5.424;2024-02-26T03:13:04;1.50;;;0.32;;
23768;SDS011;12064;50.890;5.424;2024-02-26T03:21:54;0.88;;;0.40;;
23768;SDS011;12064;50.890;5.424;2024-02-26T03:30:45;2.50;;;0.50;;
23768;SDS011;12064;50.890;5.424;2024-02-26T03:39:36;0.60;;;0.50;;
23768;SDS011;12064;50.890;5.424;2024-02-26T03:48:27;0.85;;;0.52;;
23768;SDS011;12064;50.890;5.424;2024-02-26T03:57:18;1.13;;;0.60;;
23768;SDS011;12064;50.890;5.424;2024-02-26T04:06:08;0.90;;;0.45;;
23768;SDS011;12064;50.890;5.424;2024-02-26T04:15:00;1.13;;;0.60;;
23768;SDS011;12064;50.890;5.424;2024-02-26T04:23:51;1.27;;;0.50;;
23768;SDS011;12064;50.890;5.424;2024-02-26T04:32:45;1.67;;;0.70;;
23768;SDS011;12064;50.890;5.424;2024-02-26T04:41:35;1.63;;;0.60;;
23768;SDS011;12064;50.890;5.424;2024-02-26T04:50:26;0.63;;;0.60;;
23768;SDS011;12064;50.890;5.424;2024-02-26T04:59:16;1.73;;;0.50;;
23768;SDS011;12064;50.890;5.424;2024-02-26T05:08:07;2.00;;;0.60;;
23768;SDS011;12064;50.890;5.424;2024-02-26T05:16:58;1.35;;;0.70;;
23768;SDS011;12064;50.890;5.424;2024-02-26T05:25:49;0.60;;;0.60;;
23768;SDS011;12064;50.890;5.424;2024-02-26T05:34:39;2.83;;;0.63;;
23768;SDS011;12064;50.890;5.424;2024-02-26T05:43:31;0.63;;;0.50;;
23768;SDS011;12064;50.890;5.424;2024-02-26T05:52:21;1.30;;;0.60;;
23768;SDS011;12064;50.890;5.424;2024-02-26T06:01:12;0.80;;;0.60;;
23768;SDS011;12064;50.890;5.424;2024-02-26T06:10:05;0.75;;;0.55;;
23768;SDS011;12064;50.890;5.424;2024-02-26T06:18:56;1.13;;;0.60;;
23768;SDS011;12064;50.890;5.424;2024-02-26T06:27:48;0.95;;;0.50;;
23768;SDS011;12064;50.890;5.424;2024-02-26T06:36:39;0.65;;;0.40;;
23768;SDS011;12064;50.890;5.424;2024-02-26T06:45:29;0.73;;;0.60;;
23768;SDS011;12064;50.890;5.424;2024-02-26T06:54:20;0.55;;;0.50;;
23768;SDS011;12064;50.890;5.424;2024-02-26T07:03:11;1.55;;;0.50;;
23768;SDS011;12064;50.890;5.424;2024-02-26T07:12:03;0.95;;;0.60;;
23768;SDS011;12064;50.890;5.424;2024-02-26T07:20:54;2.03;;;0.65;;
23768;SDS011;12064;50.890;5.424;2024-02-26T07:29:45;0.40;;;0.40;;
23768;SDS011;12064;50.890;5.424;2024-02-26T07:38:36;1.00;;;0.50;;
23768;SDS011;12064;50.890;5.424;2024-02-26T07:47:27;0.83;;;0.53;;
23768;SDS011;12064;50.890;5.424;2024-02-26T07:56:17;0.82;;;0.55;;
23768;SDS011;12064;50.890;5.424;2024-02-26T08:05:08;0.70;;;0.60;;
23768;SDS011;12064;50.890;5.424;2024-02-26T08:13:59;0.80;;;0.70;;
23768;SDS011;12064;50.890;5.424;2024-02-26T08:22:49;0.70;;;0.50;;
23768;SDS011;12064;50.890;5.424;2024-02-26T08:31:40;0.80;;;0.60;;
23768;SDS011;12064;50.890;5.424;2024-02-26T08:40:31;2.20;;;0.73;;
23768;SDS011;12064;50.890;5.424;2024-02-26T08:49:21;1.10;;;0.60;;
23768;SDS011;12064;50.890;5.424;2024-02-26T08:58:15;1.00;;;0.50;;
23768;SDS011;12064;50.890;5.424;2024-02-26T09:07:06;0.82;;;0.57;;
23768;SDS011;12064;50.890;5.424;2024-02-26T09:15:56;0.50;;;0.50;;
23768;SDS011;12064;50.890;5.424;2024-02-26T09:24:48;0.90;;;0.60;;
23768;SDS011;12064;50.890;5.424;2024-02-26T09:33:41;0.55;;;0.52;;
23768;SDS011;12064;50.890;5.424;2024-02-26T09:42:32;1.10;;;0.50;;
23768;SDS011;12064;50.890;5.424;2024-02-26T09:51:25;0.85;;;0.70;;
23768;SDS011;12064;50.890;5.424;2024-02-26T10:00:17;2.25;;;0.60;;
23768;SDS011;12064;50.890;5.424;2024-02-26T10:09:11;0.95;;;0.68;;
23768;SDS011;12064;50.890;5.424;2024-02-26T10:18:06;1.15;;;0.60;;
23768;SDS011;12064;50.890;5.424;2024-02-26T10:26:57;1.17;;;0.68;;
23768;SDS011;12064;50.890;5.424;2024-02-26T10:35:48;0.60;;;0.50;;
23768;SDS011;12064;50.890;5.424;2024-02-26T10:44:40;2.13;;;0.60;;
23768;SDS011;12064;50.890;5.424;2024-02-26T10:53:33;1.10;;;0.65;;
23768;SDS011;12064;50.890;5.424;2024-02-26T11:02:25;0.55;;;0.55;;
23768;SDS011;12064;50.890;5.424;2024-02-26T11:11:17;0.50;;;0.50;;
23768;SDS011;12064;50.890;5.424;2024-02-26T11:20:09;0.93;;;0.50;;
23768;SDS011;12064;50.890;5.424;2024-02-26T11:29:02;0.80;;;0.68;;
23768;SDS011;12064;50.890;5.424;2024-02-26T11:37:55;1.10;;;0.60;;
23768;SDS011;12064;50.890;5.424;2024-02-26T11:46:47;0.50;;;0.50;;
23768;SDS011;12064;50.890;5.424;2024-02-26T11:55:38;0.70;;;0.60;;
23768;SDS011;12064;50.890;5.424;2024-02-26T12:04:29;0.70;;;0.50;;
23768;SDS011;12064;50.890;5.424;2024-02-26T12:13:20;0.70;;;0.52;;
23768;SDS011;12064;50.890;5.424;2024-02-26T12:22:20;1.00;;;0.60;;
23768;SDS011;12064;50.890;5.424;2024-02-26T12:31:11;1.08;;;0.40;;
23768;SDS011;12064;50.890;5.424;2024-02-26T12:40:01;0.60;;;0.60;;
23768;SDS011;12064;50.890;5.424;2024-02-26T12:48:54;0.93;;;0.57;;
23768;SDS011;12064;50.890;5.424;2024-02-26T12:57:48;0.70;;;0.60;;
23768;SDS011;12064;50.890;5.424;2024-02-26T13:06:40;0.88;;;0.50;;
23768;SDS011;12064;50.890;5.424;2024-02-26T13:15:31;0.47;;;0.40;;
23768;SDS011;12064;50.890;5.424;2024-02-26T13:24:23;0.88;;;0.70;;
23768;SDS011;12064;50.890;5.424;2024-02-26T13:33:15;0.73;;;0.60;;
23768;SDS011;12064;50.890;5.424;2024-02-26T13:42:06;0.70;;;0.60;;
23768;SDS011;12064;50.890;5.424;2024-02-26T13:50:59;1.35;;;0.70;;
23768;SDS011;12064;50.890;5.424;2024-02-26T13:59:49;0.65;;;0.60;;
23768;SDS011;12064;50.890;5.424;2024-02-26T14:08:41;0.70;;;0.70;;
23768;SDS011;12064;50.890;5.424;2024-02-26T14:17:32;0.80;;;0.80;;
23768;SDS011;12064;50.890;5.424;2024-02-26T14:26:23;0.70;;;0.60;;
23768;SDS011;12064;50.890;5.424;2024-02-26T14:35:14;0.60;;;0.60;;
23768;SDS011;12064;50.890;5.424;2024-02-26T14:44:07;0.60;;;0.60;;
23768;SDS011;12064;50.890;5.424;2024-02-26T14:52:58;0.70;;;0.60;;
23768;SDS011;12064;50.890;5.424;2024-02-26T15:01:50;0.73;;;0.60;;
23768;SDS011;12064;50.890;5.424;2024-02-26T15:10:41;0.70;;;0.70;;
23768;SDS011;12064;50.890;5.424;2024-02-26T15:19:37;1.00;;;0.80;;
23768;SDS011;12064;50.890;5.424;2024-02-26T15:28:29;0.80;;;0.80;;
23768;SDS011;12064;50.890;5.424;2024-02-26T15:37:19;1.13;;;0.80;;
23768;SDS011;12064;50.890;5.424;2024-02-26T15:46:10;0.70;;;0.70;;
23768;SDS011;12064;50.890;5.424;2024-02-26T15:55:01;0.73;;;0.70;;
23768;SDS011;12064;50.890;5.424;2024-02-26T16:03:53;0.60;;;0.60;;
23768;SDS011;12064;50.890;5.424;2024-02-26T16:12:46;0.95;;;0.80;;
23768;SDS011;12064;50.890;5.424;2024-02-26T16:21:42;1.08;;;1.00;;
23768;SDS011;12064;50.890;5.424;2024-02-26T16:30:33;0.80;;;0.80;;
23768;SDS011;12064;50.890;5.424;2024-02-26T16:39:23;1.00;;;0.90;;
23768;SDS011;12064;50.890;5.424;2024-02-26T16:48:14;1.23;;;1.00;;
23768;SDS011;12064;50.890;5.424;2024-02-26T16:57:05;0.80;;;0.80;;
23768;SDS011;12064;50.890;5.424;2024-02-26T17:05:55;0.88;;;0.80;;
23768;SDS011;12064;50.890;5.424;2024-02-26T17:14:46;0.85;;;0.85;;
23768;SDS011;12064;50.890;5.424;2024-02-26T17:23:40;1.20;;;1.10;;
23768;SDS011;12064;50.890;5.424;2024-02-26T17:32:30;0.85;;;0.85;;
23768;SDS011;12064;50.890;5.424;2024-02-26T17:41:21;0.90;;;0.90;;
23768;SDS011;12064;50.890;5.424;2024-02-26T17:50:12;0.83;;;0.83;;
23768;SDS011;12064;50.890;5.424;2024-02-26T17:59:03;0.80;;;0.80;;
23768;SDS011;12064;50.890;5.424;2024-02-26T18:07:53;0.80;;;0.80;;
23768;SDS011;12064;50.890;5.424;2024-02-26T18:16:44;1.42;;;0.80;;
23768;SDS011;12064;50.890;5.424;2024-02-26T18:25:35;1.40;;;1.00;;
23768;SDS011;12064;50.890;5.424;2024-02-26T18:34:25;0.83;;;0.80;;
23768;SDS011;12064;50.890;5.424;2024-02-26T18:43:16;1.05;;;0.70;;
23768;SDS011;12064;50.890;5.424;2024-02-26T18:52:07;0.70;;;0.70;;
23768;SDS011;12064;50.890;5.424;2024-02-26T19:00:58;0.80;;;0.75;;
23768;SDS011;12064;50.890;5.424;2024-02-26T19:09:48;0.63;;;0.63;;
23768;SDS011;12064;50.890;5.424;2024-02-26T19:18:39;0.82;;;0.80;;
23768;SDS011;12064;50.890;5.424;2024-02-26T19:27:30;0.80;;;0.73;;
23768;SDS011;12064;50.890;5.424;2024-02-26T19:36:22;0.90;;;0.90;;
23768;SDS011;12064;50.890;5.424;2024-02-26T19:45:13;0.90;;;0.90;;
23768;SDS011;12064;50.890;5.424;2024-02-26T19:54:04;0.85;;;0.80;;
23768;SDS011;12064;50.890;5.424;2024-02-26T20:02:55;0.70;;;0.70;;
23768;SDS011;12064;50.890;5.424;2024-02-26T20:11:48;0.80;;;0.80;;
23768;SDS011;12064;50.890;5.424;2024-02-26T20:20:40;1.10;;;0.95;;
23768;SDS011;12064;50.890;5.424;2024-02-26T20:29:32;1.45;;;0.90;;
23768;SDS011;12064;50.890;5.424;2024-02-26T20:38:23;0.75;;;0.75;;
23768;SDS011;12064;50.890;5.424;2024-02-26T20:47:14;0.80;;;0.80;;
23768;SDS011;12064;50.890;5.424;2024-02-26T20:56:08;0.90;;;0.65;;
23768;SDS011;12064;50.890;5.424;2024-02-26T21:04:59;1.42;;;0.90;;
23768;SDS011;12064;50.890;5.424;2024-02-26T21:13:50;1.85;;;1.10;;
23768;SDS011;12064;50.890;5.424;2024-02-26T21:22:40;0.97;;;0.80;;
23768;SDS011;12064;50.890;5.424;2024-02-26T21:31:35;1.80;;;0.88;;
23768;SDS011;12064;50.890;5.424;2024-02-26T21:40:27;1.10;;;0.77;;
23768;SDS011;12064;50.890;5.424;2024-02-26T21:49:17;1.27;;;1.17;;
23768;SDS011;12064;50.890;5.424;2024-02-26T21:58:08;2.72;;;0.90;;
23768;SDS011;12064;50.890;5.424;2024-02-26T22:06:59;2.60;;;0.90;;
23768;SDS011;12064;50.890;5.424;2024-02-26T22:15:50;0.97;;;0.83;;
23768;SDS011;12064;50.890;5.424;2024-02-26T22:24:40;2.15;;;0.90;;
23768;SDS011;12064;50.890;5.424;2024-02-26T22:33:31;2.08;;;1.02;;
23768;SDS011;12064;50.890;5.424;2024-02-26T22:42:22;1.40;;;1.05;;
23768;SDS011;12064;50.890;5.424;2024-02-26T22:51:12;3.60;;;1.20;;
23768;SDS011;12064;50.890;5.424;2024-02-26T23:00:06;1.20;;;1.05;;
23768;SDS011;12064;50.890;5.424;2024-02-26T23:09:26;1.63;;;1.10;;
23768;SDS011;12064;50.890;5.424;2024-02-26T23:18:17;0.80;;;0.80;;
23768;SDS011;12064;50.890;5.424;2024-02-26T23:27:07;1.10;;;1.00;;
23768;SDS011;12064;50.890;5.424;2024-02-26T23:35:58;0.97;;;0.90;;
23768;SDS011;12064;50.890;5.424;2024-02-26T23:44:48;1.20;;;1.10;;
23768;SDS011;12064;50.890;5.424;2024-02-26T23:53:41;1.45;;;1.00;;
